createdAt,value
2022-10-03T00:02:41.301Z,87.77
2022-10-03T00:07:42.281Z,87.76
2022-10-03T00:12:42.304Z,87.74
2022-10-03T00:17:42.341Z,87.78
2022-10-03T00:22:42.223Z,87.86
2022-10-03T00:27:42.245Z,87.89
2022-10-03T00:32:43.353Z,87.88
2022-10-03T00:37:43.320Z,87.94
2022-10-03T00:42:43.263Z,87.96
2022-10-03T00:47:43.602Z,88.00
2022-10-03T00:52:43.280Z,88.00
2022-10-03T00:57:43.612Z,88.07
2022-10-03T01:02:43.395Z,88.07
2022-10-03T01:07:43.425Z,88.11
2022-10-03T01:12:44.376Z,88.17
2022-10-03T01:17:46.559Z,88.18
2022-10-03T01:22:46.611Z,88.18
2022-10-03T01:28:05.859Z,88.16
2022-10-03T01:33:05.290Z,88.15
2022-10-03T01:38:05.932Z,88.19
2022-10-03T01:43:06.361Z,88.22
2022-10-03T01:48:06.393Z,88.24
2022-10-03T01:53:06.306Z,88.31
2022-10-03T01:58:06.298Z,88.37
2022-10-03T02:03:06.395Z,88.43
2022-10-03T02:08:06.464Z,88.45
2022-10-03T02:13:06.463Z,88.41
2022-10-03T02:18:08.098Z,88.46
2022-10-03T02:23:08.339Z,88.49
2022-10-03T02:28:08.484Z,88.55
2022-10-03T02:33:08.344Z,88.57
2022-10-03T02:38:08.452Z,88.59
2022-10-03T02:43:08.420Z,88.66
2022-10-03T02:48:30.803Z,88.72
2022-10-03T02:53:10.306Z,88.72
2022-10-03T02:58:11.020Z,88.72
2022-10-03T03:03:11.317Z,88.69
2022-10-03T03:08:11.430Z,88.65
2022-10-03T03:13:11.387Z,88.64
2022-10-03T03:18:11.825Z,88.69
2022-10-03T03:23:11.353Z,88.70
2022-10-03T03:28:11.645Z,88.78
2022-10-03T03:33:11.576Z,88.80
2022-10-03T03:38:11.425Z,88.79
2022-10-03T03:43:11.406Z,88.90
2022-10-03T03:48:12.372Z,88.94
2022-10-03T03:53:12.406Z,88.78
2022-10-03T03:58:13.257Z,88.73
2022-10-03T04:03:13.590Z,88.77
2022-10-03T04:08:13.457Z,88.67
2022-10-03T04:13:13.469Z,88.66
2022-10-03T04:18:31.768Z,88.61
2022-10-03T04:23:31.371Z,88.54
2022-10-03T04:28:33.366Z,88.67
2022-10-03T04:33:33.477Z,88.67
2022-10-03T04:38:34.560Z,88.58
2022-10-03T04:43:34.619Z,88.71
2022-10-03T04:48:34.408Z,88.64
2022-10-03T04:53:36.738Z,88.62
2022-10-03T04:58:37.077Z,88.57
2022-10-03T05:03:37.525Z,88.56
2022-10-03T05:08:37.494Z,88.53
2022-10-03T05:13:38.925Z,88.48
2022-10-03T05:18:38.901Z,88.44
2022-10-03T05:23:38.856Z,88.46
2022-10-03T05:28:39.946Z,88.36
2022-10-03T05:33:39.589Z,88.35
2022-10-03T05:38:39.517Z,88.14
2022-10-03T05:43:39.539Z,88.06
2022-10-03T05:48:39.526Z,88.01
2022-10-03T05:53:39.486Z,87.98
2022-10-03T05:58:39.798Z,87.89
2022-10-03T06:03:39.545Z,87.75
2022-10-03T06:08:40.099Z,87.69
2022-10-03T06:13:40.542Z,87.54
2022-10-03T06:18:40.982Z,87.45
2022-10-03T06:23:40.532Z,87.27
2022-10-03T06:28:40.550Z,87.09
2022-10-03T06:33:40.488Z,86.87
2022-10-03T06:38:40.571Z,86.59
2022-10-03T06:43:40.477Z,86.52
2022-10-03T06:48:40.828Z,86.40
2022-10-03T06:53:40.543Z,86.09
2022-10-03T06:58:41.549Z,85.76
2022-10-03T07:03:42.415Z,85.49
2022-10-03T07:08:43.362Z,85.38
2022-10-03T07:13:43.546Z,85.07
2022-10-03T07:18:43.989Z,84.85
2022-10-03T07:23:46.552Z,84.34
2022-10-03T07:28:47.619Z,84.06
2022-10-03T07:33:47.584Z,83.61
2022-10-03T07:39:07.143Z,82.50
2022-10-03T07:44:07.797Z,81.09
2022-10-03T07:49:07.588Z,81.11
2022-10-03T07:54:07.539Z,81.17
2022-10-03T07:59:08.111Z,81.43
2022-10-03T08:04:07.733Z,81.19
2022-10-03T08:09:07.668Z,80.75
2022-10-03T08:14:07.553Z,80.26
2022-10-03T08:19:10.659Z,79.86
2022-10-03T08:24:09.648Z,78.84
2022-10-03T08:29:09.663Z,78.34
2022-10-03T08:34:09.728Z,75.60
2022-10-03T08:39:57.106Z,76.08
2022-10-03T08:44:56.788Z,75.22
2022-10-03T08:49:56.708Z,72.59
2022-10-03T08:54:57.065Z,70.77
2022-10-03T08:59:56.897Z,66.23
2022-10-03T09:04:56.832Z,64.10
2022-10-03T09:09:56.769Z,60.11
2022-10-03T09:14:56.717Z,57.08
2022-10-03T09:19:56.711Z,58.76
2022-10-03T09:24:56.669Z,57.69
2022-10-03T09:29:56.833Z,58.61
2022-10-03T09:34:56.787Z,58.59
2022-10-03T09:39:56.767Z,58.23
2022-10-03T09:44:56.711Z,59.24
2022-10-03T09:49:56.870Z,58.80
2022-10-03T09:54:58.073Z,58.65
2022-10-03T09:59:57.818Z,59.34
2022-10-03T10:04:57.963Z,56.96
2022-10-03T10:09:57.893Z,57.48
2022-10-03T10:14:57.774Z,59.79
2022-10-03T10:19:57.989Z,61.37
2022-10-03T10:24:58.451Z,61.20
2022-10-03T10:29:58.991Z,61.15
2022-10-03T10:34:58.805Z,60.78
2022-10-03T10:39:58.880Z,60.51
2022-10-03T10:44:58.859Z,59.26
2022-10-03T10:49:58.837Z,59.15
2022-10-03T10:55:01.466Z,59.80
2022-10-03T11:00:01.780Z,60.04
2022-10-03T11:05:02.712Z,56.99
2022-10-03T11:10:02.900Z,57.49
2022-10-03T11:15:02.817Z,58.29
2022-10-03T11:20:02.854Z,57.51
2022-10-03T11:25:03.038Z,57.91
2022-10-03T11:30:02.885Z,58.82
2022-10-03T11:35:03.021Z,59.69
2022-10-03T11:40:03.153Z,60.10
2022-10-03T11:45:02.850Z,58.56
2022-10-03T11:50:02.886Z,58.17
2022-10-03T11:55:02.967Z,57.03
2022-10-03T12:00:04.991Z,57.59
2022-10-03T12:05:04.992Z,56.91
2022-10-03T12:10:04.966Z,56.78
2022-10-03T12:15:04.885Z,56.89
2022-10-03T12:20:05.379Z,56.60
2022-10-03T12:25:06.016Z,55.96
2022-10-03T12:30:05.939Z,55.41
2022-10-03T12:35:07.572Z,56.52
2022-10-03T12:40:10.455Z,55.77
2022-10-03T12:45:10.989Z,55.94
2022-10-03T12:50:10.952Z,55.12
2022-10-03T12:55:10.948Z,54.94
2022-10-03T13:00:10.903Z,54.32
2022-10-03T13:05:11.014Z,53.77
2022-10-03T13:10:11.025Z,53.45
2022-10-03T13:15:11.013Z,53.99
2022-10-03T13:20:10.917Z,54.23
2022-10-03T13:25:11.721Z,53.76
2022-10-03T13:30:11.995Z,53.76
2022-10-03T13:35:29.957Z,53.86
2022-10-03T13:40:30.066Z,53.63
2022-10-03T13:45:30.159Z,53.68
2022-10-03T13:50:30.594Z,54.03
2022-10-03T13:55:31.240Z,54.63
2022-10-03T14:00:30.948Z,54.98
2022-10-03T14:05:31.000Z,54.87
2022-10-03T14:10:31.227Z,55.51
2022-10-03T14:15:31.687Z,55.68
2022-10-03T14:20:32.030Z,56.15
2022-10-03T14:25:32.383Z,56.49
2022-10-03T14:30:32.268Z,57.04
2022-10-03T14:35:33.953Z,57.35
2022-10-03T14:40:34.162Z,57.74
2022-10-03T14:45:34.098Z,57.76
2022-10-03T14:50:33.994Z,58.00
2022-10-03T14:55:34.096Z,58.11
2022-10-03T15:00:34.471Z,57.90
2022-10-03T15:05:34.702Z,58.21
2022-10-03T15:10:36.482Z,58.73
2022-10-03T15:15:36.009Z,59.28
2022-10-03T15:20:36.838Z,59.40
2022-10-03T15:25:37.587Z,59.59
2022-10-03T15:30:38.092Z,60.02
2022-10-03T15:35:38.730Z,60.55
2022-10-03T15:40:39.262Z,61.04
2022-10-03T15:45:39.212Z,61.60
2022-10-03T15:50:40.513Z,62.11
2022-10-03T15:55:41.993Z,62.55
2022-10-03T16:00:42.346Z,63.01
2022-10-03T16:05:42.107Z,63.40
2022-10-03T16:10:42.237Z,63.79
2022-10-03T16:15:42.252Z,64.19
2022-10-03T16:20:42.149Z,64.60
2022-10-03T16:25:42.111Z,64.82
2022-10-03T16:30:42.072Z,65.13
2022-10-03T16:35:42.154Z,65.93
2022-10-03T16:40:42.147Z,66.91
2022-10-03T16:45:42.498Z,67.87
2022-10-03T16:50:42.114Z,68.64
2022-10-03T16:55:42.217Z,69.35
2022-10-03T17:00:42.285Z,69.57
2022-10-03T17:05:42.122Z,70.13
2022-10-03T17:10:42.219Z,70.73
2022-10-03T17:15:42.216Z,71.16
2022-10-03T17:20:43.567Z,71.42
2022-10-03T17:25:43.188Z,72.00
2022-10-03T17:30:43.123Z,72.82
2022-10-03T17:35:43.183Z,73.15
2022-10-03T17:40:43.512Z,73.68
2022-10-03T17:45:43.208Z,74.67
2022-10-03T17:50:43.261Z,74.84
2022-10-03T17:55:43.150Z,75.13
2022-10-03T18:00:43.148Z,75.44
2022-10-03T18:05:43.240Z,75.83
2022-10-03T18:10:43.733Z,76.29
2022-10-03T18:15:44.521Z,76.73
2022-10-03T18:20:44.210Z,77.07
2022-10-03T18:26:19.643Z,77.40
2022-10-03T18:31:03.187Z,77.85
2022-10-03T18:36:03.277Z,77.98
2022-10-03T18:41:03.548Z,78.23
2022-10-03T18:46:03.769Z,78.38
2022-10-03T18:51:04.166Z,78.69
2022-10-03T18:56:04.209Z,78.92
2022-10-03T19:01:04.376Z,79.09
2022-10-03T19:06:04.196Z,79.50
2022-10-03T19:11:04.352Z,79.70
2022-10-03T19:16:04.250Z,80.04
2022-10-03T19:21:04.156Z,80.07
2022-10-03T19:26:04.215Z,80.29
2022-10-03T19:31:04.256Z,80.56
2022-10-03T19:36:07.468Z,80.64
2022-10-03T19:41:07.205Z,80.60
2022-10-03T19:46:07.289Z,80.74
2022-10-03T19:51:07.266Z,80.76
2022-10-03T19:56:07.299Z,80.80
2022-10-03T20:01:09.218Z,81.04
2022-10-03T20:06:09.397Z,81.05
2022-10-03T20:11:09.297Z,81.11
2022-10-03T20:16:09.273Z,81.16
2022-10-03T20:21:09.255Z,81.43
2022-10-03T20:26:10.466Z,81.61
2022-10-03T20:31:10.314Z,81.91
2022-10-03T20:36:10.259Z,82.23
2022-10-03T20:41:10.539Z,82.31
2022-10-03T20:46:10.467Z,82.43
2022-10-03T20:51:10.246Z,82.59
2022-10-03T20:56:10.280Z,82.74
2022-10-03T21:01:10.349Z,82.81
2022-10-03T21:06:14.245Z,82.93
2022-10-03T21:11:12.347Z,83.07
2022-10-03T21:16:12.354Z,83.07
2022-10-03T21:21:12.308Z,83.22
2022-10-03T21:26:12.262Z,83.36
2022-10-03T21:31:12.353Z,83.48
2022-10-03T21:36:12.315Z,83.52
2022-10-03T21:41:12.370Z,83.64
2022-10-03T21:46:12.529Z,83.76
2022-10-03T21:51:13.258Z,83.85
2022-10-03T21:56:13.367Z,83.91
2022-10-03T22:01:13.454Z,83.95
2022-10-03T22:06:13.369Z,83.93
2022-10-03T22:11:13.278Z,83.92
2022-10-03T22:16:13.515Z,83.99
2022-10-03T22:21:13.254Z,84.08
2022-10-03T22:26:13.387Z,84.11
2022-10-03T22:31:13.398Z,84.11
2022-10-03T22:36:13.346Z,84.21
2022-10-03T22:41:13.381Z,84.37
2022-10-03T22:46:13.827Z,84.36
2022-10-03T22:51:14.496Z,84.41
2022-10-03T22:56:14.296Z,84.46
2022-10-03T23:01:14.369Z,84.51
2022-10-03T23:06:15.323Z,84.48
2022-10-03T23:11:15.357Z,84.52
2022-10-03T23:16:15.479Z,84.61
2022-10-03T23:21:15.328Z,84.59
2022-10-03T23:26:15.447Z,84.54
2022-10-03T23:31:15.450Z,84.58
2022-10-03T23:36:15.399Z,84.50
2022-10-03T23:41:15.447Z,84.57
2022-10-03T23:46:15.552Z,84.62
2022-10-03T23:51:15.403Z,84.50
2022-10-03T23:56:15.451Z,84.47
